sensor_id;sensor_type;location;lat;lon;timestamp;pressure;altitude;pressure_sealevel;temperature
68510;BMP180;55512;50.102;19.958;2023-06-14T00:02:09;98648.60;;;12.60
68510;BMP180;55512;50.102;19.958;2023-06-14T00:04:35;98645.80;;;12.60
68510;BMP180;55512;50.102;19.958;2023-06-14T00:07:01;98648.60;;;12.60
68510;BMP180;55512;50.102;19.958;2023-06-14T00:09:27;98646.20;;;12.60
68510;BMP180;55512;50.102;19.958;2023-06-14T00:11:52;98643.00;;;12.62
68510;BMP180;55512;50.102;19.958;2023-06-14T00:14:18;98641.00;;;12.68
68510;BMP180;55512;50.102;19.958;2023-06-14T00:16:44;98645.60;;;12.70
68510;BMP180;55512;50.102;19.958;2023-06-14T00:19:09;98644.80;;;12.70
68510;BMP180;55512;50.102;19.958;2023-06-14T00:21:36;98648.60;;;12.74
68510;BMP180;55512;50.102;19.958;2023-06-14T00:24:03;98648.20;;;12.80
68510;BMP180;55512;50.102;19.958;2023-06-14T00:26:29;98648.60;;;12.80
68510;BMP180;55512;50.102;19.958;2023-06-14T00:28:55;98648.40;;;12.88
68510;BMP180;55512;50.102;19.958;2023-06-14T00:31:22;98650.80;;;12.90
68510;BMP180;55512;50.102;19.958;2023-06-14T00:33:48;98643.00;;;12.90
68510;BMP180;55512;50.102;19.958;2023-06-14T00:36:14;98643.00;;;12.90
68510;BMP180;55512;50.102;19.958;2023-06-14T00:38:39;98636.00;;;12.90
68510;BMP180;55512;50.102;19.958;2023-06-14T00:41:05;98637.80;;;12.86
68510;BMP180;55512;50.102;19.958;2023-06-14T00:43:30;98636.80;;;12.88
68510;BMP180;55512;50.102;19.958;2023-06-14T00:45:56;98637.60;;;12.90
68510;BMP180;55512;50.102;19.958;2023-06-14T00:48:22;98633.00;;;12.90
68510;BMP180;55512;50.102;19.958;2023-06-14T00:50:51;98634.20;;;12.80
68510;BMP180;55512;50.102;19.958;2023-06-14T00:53:19;98633.60;;;12.80
68510;BMP180;55512;50.102;19.958;2023-06-14T00:55:46;98630.40;;;12.80
68510;BMP180;55512;50.102;19.958;2023-06-14T00:58:13;98625.20;;;12.70
68510;BMP180;55512;50.102;19.958;2023-06-14T01:00:39;98614.00;;;12.60
68510;BMP180;55512;50.102;19.958;2023-06-14T01:03:04;98615.60;;;12.50
68510;BMP180;55512;50.102;19.958;2023-06-14T01:05:31;98616.00;;;12.48
68510;BMP180;55512;50.102;19.958;2023-06-14T01:08:28;98616.20;;;12.50
68510;BMP180;55512;50.102;19.958;2023-06-14T01:11:17;98612.20;;;12.48
68510;BMP180;55512;50.102;19.958;2023-06-14T01:13:46;98612.20;;;12.46
68510;BMP180;55512;50.102;19.958;2023-06-14T01:16:12;98613.80;;;12.50
68510;BMP180;55512;50.102;19.958;2023-06-14T01:18:38;98612.00;;;12.50
68510;BMP180;55512;50.102;19.958;2023-06-14T01:21:04;98616.60;;;12.50
68510;BMP180;55512;50.102;19.958;2023-06-14T01:23:32;98608.60;;;12.60
68510;BMP180;55512;50.102;19.958;2023-06-14T01:25:59;98614.00;;;12.60
68510;BMP180;55512;50.102;19.958;2023-06-14T01:28:27;98612.40;;;12.60
68510;BMP180;55512;50.102;19.958;2023-06-14T01:31:00;98610.20;;;12.62
68510;BMP180;55512;50.102;19.958;2023-06-14T01:33:31;98608.20;;;12.68
68510;BMP180;55512;50.102;19.958;2023-06-14T01:35:58;98605.60;;;12.70
68510;BMP180;55512;50.102;19.958;2023-06-14T01:38:26;98605.60;;;12.70
68510;BMP180;55512;50.102;19.958;2023-06-14T01:40:55;98604.80;;;12.78
68510;BMP180;55512;50.102;19.958;2023-06-14T01:43:23;98599.00;;;12.80
68510;BMP180;55512;50.102;19.958;2023-06-14T01:45:50;98597.80;;;12.80
68510;BMP180;55512;50.102;19.958;2023-06-14T01:48:17;98595.60;;;12.80
68510;BMP180;55512;50.102;19.958;2023-06-14T01:50:42;98590.20;;;12.80
68510;BMP180;55512;50.102;19.958;2023-06-14T01:53:10;98587.60;;;12.80
68510;BMP180;55512;50.102;19.958;2023-06-14T01:55:35;98586.60;;;12.80
68510;BMP180;55512;50.102;19.958;2023-06-14T01:58:05;98585.00;;;12.80
68510;BMP180;55512;50.102;19.958;2023-06-14T02:00:31;98586.60;;;12.80
68510;BMP180;55512;50.102;19.958;2023-06-14T02:02:57;98591.00;;;12.80
68510;BMP180;55512;50.102;19.958;2023-06-14T02:05:23;98591.00;;;12.80
68510;BMP180;55512;50.102;19.958;2023-06-14T02:07:49;98594.80;;;12.86
68510;BMP180;55512;50.102;19.958;2023-06-14T02:10:16;98596.80;;;12.90
68510;BMP180;55512;50.102;19.958;2023-06-14T02:12:43;98594.40;;;12.90
68510;BMP180;55512;50.102;19.958;2023-06-14T02:15:09;98599.00;;;12.90
68510;BMP180;55512;50.102;19.958;2023-06-14T02:17:48;98600.80;;;12.90
68510;BMP180;55512;50.102;19.958;2023-06-14T02:20:15;98593.60;;;12.90
68510;BMP180;55512;50.102;19.958;2023-06-14T02:22:41;98597.40;;;12.90
68510;BMP180;55512;50.102;19.958;2023-06-14T02:25:08;98594.40;;;12.88
68510;BMP180;55512;50.102;19.958;2023-06-14T02:27:34;98592.60;;;12.90
68510;BMP180;55512;50.102;19.958;2023-06-14T02:30:00;98595.60;;;12.90
68510;BMP180;55512;50.102;19.958;2023-06-14T02:32:26;98591.60;;;12.90
68510;BMP180;55512;50.102;19.958;2023-06-14T02:34:54;98594.20;;;12.90
68510;BMP180;55512;50.102;19.958;2023-06-14T02:37:20;98592.40;;;12.90
68510;BMP180;55512;50.102;19.958;2023-06-14T02:39:53;98593.80;;;12.90
68510;BMP180;55512;50.102;19.958;2023-06-14T02:42:19;98594.20;;;12.90
68510;BMP180;55512;50.102;19.958;2023-06-14T02:44:45;98593.40;;;12.90
68510;BMP180;55512;50.102;19.958;2023-06-14T02:47:17;98594.20;;;12.90
68510;BMP180;55512;50.102;19.958;2023-06-14T02:49:42;98588.40;;;12.90
68510;BMP180;55512;50.102;19.958;2023-06-14T02:52:08;98587.60;;;12.94
68510;BMP180;55512;50.102;19.958;2023-06-14T02:54:34;98585.40;;;12.92
68510;BMP180;55512;50.102;19.958;2023-06-14T02:57:00;98582.40;;;12.90
68510;BMP180;55512;50.102;19.958;2023-06-14T02:59:25;98582.80;;;12.90
68510;BMP180;55512;50.102;19.958;2023-06-14T03:01:51;98582.80;;;12.90
68510;BMP180;55512;50.102;19.958;2023-06-14T03:04:17;98581.80;;;12.90
68510;BMP180;55512;50.102;19.958;2023-06-14T03:06:43;98581.60;;;12.94
68510;BMP180;55512;50.102;19.958;2023-06-14T03:09:09;98582.60;;;13.00
68510;BMP180;55512;50.102;19.958;2023-06-14T03:11:35;98579.00;;;13.00
68510;BMP180;55512;50.102;19.958;2023-06-14T03:14:01;98586.20;;;13.00
68510;BMP180;55512;50.102;19.958;2023-06-14T03:16:29;98583.40;;;13.00
68510;BMP180;55512;50.102;19.958;2023-06-14T03:18:55;98580.20;;;13.00
68510;BMP180;55512;50.102;19.958;2023-06-14T03:21:21;98587.60;;;13.00
68510;BMP180;55512;50.102;19.958;2023-06-14T03:23:48;98585.80;;;13.00
68510;BMP180;55512;50.102;19.958;2023-06-14T03:26:14;98590.00;;;13.10
68510;BMP180;55512;50.102;19.958;2023-06-14T03:28:46;98592.80;;;13.10
68510;BMP180;55512;50.102;19.958;2023-06-14T03:31:12;98591.40;;;13.10
68510;BMP180;55512;50.102;19.958;2023-06-14T03:33:39;98589.80;;;13.10
68510;BMP180;55512;50.102;19.958;2023-06-14T03:36:06;98587.60;;;13.04
68510;BMP180;55512;50.102;19.958;2023-06-14T03:38:34;98588.20;;;13.10
68510;BMP180;55512;50.102;19.958;2023-06-14T03:41:00;98586.40;;;13.10
68510;BMP180;55512;50.102;19.958;2023-06-14T03:43:27;98588.00;;;13.10
68510;BMP180;55512;50.102;19.958;2023-06-14T03:45:52;98587.40;;;13.10
68510;BMP180;55512;50.102;19.958;2023-06-14T03:48:18;98591.60;;;13.18
68510;BMP180;55512;50.102;19.958;2023-06-14T03:50:43;98596.60;;;13.20
68510;BMP180;55512;50.102;19.958;2023-06-14T03:53:10;98592.60;;;13.20
68510;BMP180;55512;50.102;19.958;2023-06-14T03:55:36;98594.60;;;13.20
68510;BMP180;55512;50.102;19.958;2023-06-14T03:58:03;98598.80;;;13.20
68510;BMP180;55512;50.102;19.958;2023-06-14T04:00:29;98598.40;;;13.20
68510;BMP180;55512;50.102;19.958;2023-06-14T04:02:54;98598.60;;;13.20
68510;BMP180;55512;50.102;19.958;2023-06-14T04:05:20;98596.60;;;13.20
68510;BMP180;55512;50.102;19.958;2023-06-14T04:07:46;98598.40;;;13.20
68510;BMP180;55512;50.102;19.958;2023-06-14T04:10:17;98607.20;;;13.20
68510;BMP180;55512;50.102;19.958;2023-06-14T04:12:46;98606.00;;;13.20
68510;BMP180;55512;50.102;19.958;2023-06-14T04:15:11;98610.80;;;13.20
68510;BMP180;55512;50.102;19.958;2023-06-14T04:17:38;98612.20;;;13.20
68510;BMP180;55512;50.102;19.958;2023-06-14T04:20:04;98609.60;;;13.22
68510;BMP180;55512;50.102;19.958;2023-06-14T04:22:32;98607.00;;;13.20
68510;BMP180;55512;50.102;19.958;2023-06-14T04:24:58;98602.20;;;13.30
68510;BMP180;55512;50.102;19.958;2023-06-14T04:27:25;98606.20;;;13.30
68510;BMP180;55512;50.102;19.958;2023-06-14T04:29:52;98603.20;;;13.30
68510;BMP180;55512;50.102;19.958;2023-06-14T04:32:24;98604.80;;;13.30
68510;BMP180;55512;50.102;19.958;2023-06-14T04:34:54;98608.00;;;13.30
68510;BMP180;55512;50.102;19.958;2023-06-14T04:37:23;98606.80;;;13.30
68510;BMP180;55512;50.102;19.958;2023-06-14T04:39:49;98611.00;;;13.34
68510;BMP180;55512;50.102;19.958;2023-06-14T04:42:16;98610.60;;;13.40
68510;BMP180;55512;50.102;19.958;2023-06-14T04:44:43;98611.20;;;13.40
68510;BMP180;55512;50.102;19.958;2023-06-14T04:47:09;98608.80;;;13.30
68510;BMP180;55512;50.102;19.958;2023-06-14T04:49:36;98609.00;;;13.30
68510;BMP180;55512;50.102;19.958;2023-06-14T04:52:02;98608.40;;;13.30
68510;BMP180;55512;50.102;19.958;2023-06-14T04:54:27;98609.00;;;13.34
68510;BMP180;55512;50.102;19.958;2023-06-14T04:56:53;98611.20;;;13.40
68510;BMP180;55512;50.102;19.958;2023-06-14T04:59:21;98614.00;;;13.48
68510;BMP180;55512;50.102;19.958;2023-06-14T05:01:49;98611.20;;;13.50
68510;BMP180;55512;50.102;19.958;2023-06-14T05:04:15;98611.40;;;13.50
68510;BMP180;55512;50.102;19.958;2023-06-14T05:06:45;98613.80;;;13.60
68510;BMP180;55512;50.102;19.958;2023-06-14T05:09:14;98613.40;;;13.60
68510;BMP180;55512;50.102;19.958;2023-06-14T05:11:40;98612.40;;;13.60
68510;BMP180;55512;50.102;19.958;2023-06-14T05:14:11;98612.40;;;13.70
68510;BMP180;55512;50.102;19.958;2023-06-14T05:16:37;98615.20;;;13.70
68510;BMP180;55512;50.102;19.958;2023-06-14T05:19:03;98614.80;;;13.80
68510;BMP180;55512;50.102;19.958;2023-06-14T05:21:30;98616.00;;;13.80
68510;BMP180;55512;50.102;19.958;2023-06-14T05:23:57;98618.00;;;13.80
68510;BMP180;55512;50.102;19.958;2023-06-14T05:26:23;98616.80;;;13.90
68510;BMP180;55512;50.102;19.958;2023-06-14T05:28:55;98615.40;;;13.90
68510;BMP180;55512;50.102;19.958;2023-06-14T05:31:22;98617.60;;;14.00
68510;BMP180;55512;50.102;19.958;2023-06-14T05:33:50;98620.00;;;14.00
68510;BMP180;55512;50.102;19.958;2023-06-14T05:36:16;98622.20;;;14.02
68510;BMP180;55512;50.102;19.958;2023-06-14T05:38:41;98621.00;;;14.08
68510;BMP180;55512;50.102;19.958;2023-06-14T05:41:07;98623.20;;;14.10
68510;BMP180;55512;50.102;19.958;2023-06-14T05:43:32;98630.60;;;14.10
68510;BMP180;55512;50.102;19.958;2023-06-14T05:45:58;98625.00;;;14.10
68510;BMP180;55512;50.102;19.958;2023-06-14T05:48:24;98629.80;;;14.16
68510;BMP180;55512;50.102;19.958;2023-06-14T05:50:49;98629.60;;;14.20
68510;BMP180;55512;50.102;19.958;2023-06-14T05:53:15;98628.20;;;14.20
68510;BMP180;55512;50.102;19.958;2023-06-14T05:55:40;98630.20;;;14.20
68510;BMP180;55512;50.102;19.958;2023-06-14T05:58:06;98632.60;;;14.20
68510;BMP180;55512;50.102;19.958;2023-06-14T06:00:32;98635.40;;;14.20
68510;BMP180;55512;50.102;19.958;2023-06-14T06:02:57;98634.80;;;14.20
68510;BMP180;55512;50.102;19.958;2023-06-14T06:05:23;98638.60;;;14.28
68510;BMP180;55512;50.102;19.958;2023-06-14T06:07:49;98641.80;;;14.28
68510;BMP180;55512;50.102;19.958;2023-06-14T06:10:15;98640.20;;;14.30
68510;BMP180;55512;50.102;19.958;2023-06-14T06:12:42;98641.40;;;14.30
68510;BMP180;55512;50.102;19.958;2023-06-14T06:15:08;98641.80;;;14.30
68510;BMP180;55512;50.102;19.958;2023-06-14T06:17:37;98648.20;;;14.24
68510;BMP180;55512;50.102;19.958;2023-06-14T06:20:05;98646.80;;;14.20
68510;BMP180;55512;50.102;19.958;2023-06-14T06:22:34;98648.20;;;14.20
68510;BMP180;55512;50.102;19.958;2023-06-14T06:24:59;98645.40;;;14.26
68510;BMP180;55512;50.102;19.958;2023-06-14T06:27:25;98647.60;;;14.30
68510;BMP180;55512;50.102;19.958;2023-06-14T06:29:50;98649.40;;;14.30
68510;BMP180;55512;50.102;19.958;2023-06-14T06:32:17;98648.80;;;14.30
68510;BMP180;55512;50.102;19.958;2023-06-14T06:34:43;98652.40;;;14.32
68510;BMP180;55512;50.102;19.958;2023-06-14T06:37:08;98652.20;;;14.40
68510;BMP180;55512;50.102;19.958;2023-06-14T06:39:34;98652.80;;;14.40
68510;BMP180;55512;50.102;19.958;2023-06-14T06:42:00;98655.40;;;14.40
68510;BMP180;55512;50.102;19.958;2023-06-14T06:44:26;98661.40;;;14.44
68510;BMP180;55512;50.102;19.958;2023-06-14T06:46:51;98665.20;;;14.50
68510;BMP180;55512;50.102;19.958;2023-06-14T06:49:17;98669.20;;;14.50
68510;BMP180;55512;50.102;19.958;2023-06-14T06:51:43;98673.60;;;14.50
68510;BMP180;55512;50.102;19.958;2023-06-14T06:54:10;98676.20;;;14.50
68510;BMP180;55512;50.102;19.958;2023-06-14T06:56:36;98681.40;;;14.50
68510;BMP180;55512;50.102;19.958;2023-06-14T06:59:02;98681.60;;;14.50
68510;BMP180;55512;50.102;19.958;2023-06-14T07:01:27;98675.40;;;14.50
68510;BMP180;55512;50.102;19.958;2023-06-14T07:03:55;98678.80;;;14.60
68510;BMP180;55512;50.102;19.958;2023-06-14T07:06:21;98679.60;;;14.60
68510;BMP180;55512;50.102;19.958;2023-06-14T07:08:47;98675.20;;;14.60
68510;BMP180;55512;50.102;19.958;2023-06-14T07:11:14;98679.00;;;14.60
68510;BMP180;55512;50.102;19.958;2023-06-14T07:13:39;98682.60;;;14.60
68510;BMP180;55512;50.102;19.958;2023-06-14T07:16:05;98684.00;;;14.60
68510;BMP180;55512;50.102;19.958;2023-06-14T07:18:31;98689.20;;;14.60
68510;BMP180;55512;50.102;19.958;2023-06-14T07:20:57;98694.00;;;14.70
68510;BMP180;55512;50.102;19.958;2023-06-14T07:23:23;98695.60;;;14.70
68510;BMP180;55512;50.102;19.958;2023-06-14T07:25:49;98701.60;;;14.70
68510;BMP180;55512;50.102;19.958;2023-06-14T07:28:16;98708.00;;;14.70
68510;BMP180;55512;50.102;19.958;2023-06-14T07:30:42;98706.60;;;14.70
68510;BMP180;55512;50.102;19.958;2023-06-14T07:33:35;98708.60;;;14.70
68510;BMP180;55512;50.102;19.958;2023-06-14T07:36:00;98712.80;;;14.68
68510;BMP180;55512;50.102;19.958;2023-06-14T07:38:26;98707.80;;;14.60
68510;BMP180;55512;50.102;19.958;2023-06-14T07:40:52;98709.80;;;14.60
68510;BMP180;55512;50.102;19.958;2023-06-14T07:43:17;98709.20;;;14.60
68510;BMP180;55512;50.102;19.958;2023-06-14T07:45:43;98713.60;;;14.60
68510;BMP180;55512;50.102;19.958;2023-06-14T07:48:09;98712.00;;;14.60
68510;BMP180;55512;50.102;19.958;2023-06-14T07:50:35;98710.00;;;14.60
68510;BMP180;55512;50.102;19.958;2023-06-14T07:53:00;98712.60;;;14.60
68510;BMP180;55512;50.102;19.958;2023-06-14T07:55:26;98713.60;;;14.50
68510;BMP180;55512;50.102;19.958;2023-06-14T07:57:51;98714.20;;;14.50
68510;BMP180;55512;50.102;19.958;2023-06-14T08:00:18;98715.20;;;14.50
68510;BMP180;55512;50.102;19.958;2023-06-14T08:02:45;98717.00;;;14.60
68510;BMP180;55512;50.102;19.958;2023-06-14T08:05:11;98716.80;;;14.60
68510;BMP180;55512;50.102;19.958;2023-06-14T08:07:39;98718.40;;;14.64
68510;BMP180;55512;50.102;19.958;2023-06-14T08:10:06;98724.20;;;14.70
68510;BMP180;55512;50.102;19.958;2023-06-14T08:12:33;98723.00;;;14.72
68510;BMP180;55512;50.102;19.958;2023-06-14T08:14:59;98718.60;;;14.80
68510;BMP180;55512;50.102;19.958;2023-06-14T08:17:25;98719.40;;;14.80
68510;BMP180;55512;50.102;19.958;2023-06-14T08:19:50;98719.00;;;14.70
68510;BMP180;55512;50.102;19.958;2023-06-14T08:22:17;98713.80;;;14.70
68510;BMP180;55512;50.102;19.958;2023-06-14T08:24:43;98713.20;;;14.70
68510;BMP180;55512;50.102;19.958;2023-06-14T08:27:10;98712.80;;;14.70
68510;BMP180;55512;50.102;19.958;2023-06-14T08:29:36;98715.00;;;14.64
68510;BMP180;55512;50.102;19.958;2023-06-14T08:32:01;98716.60;;;14.60
68510;BMP180;55512;50.102;19.958;2023-06-14T08:34:27;98717.00;;;14.50
68510;BMP180;55512;50.102;19.958;2023-06-14T08:36:53;98718.80;;;14.50
68510;BMP180;55512;50.102;19.958;2023-06-14T08:39:18;98719.40;;;14.60
68510;BMP180;55512;50.102;19.958;2023-06-14T08:41:47;98719.00;;;14.58
68510;BMP180;55512;50.102;19.958;2023-06-14T08:44:19;98717.40;;;14.60
68510;BMP180;55512;50.102;19.958;2023-06-14T08:46:47;98718.80;;;14.50
68510;BMP180;55512;50.102;19.958;2023-06-14T08:49:16;98720.80;;;14.54
68510;BMP180;55512;50.102;19.958;2023-06-14T08:51:43;98726.20;;;14.54
68510;BMP180;55512;50.102;19.958;2023-06-14T08:54:11;98728.00;;;14.50
68510;BMP180;55512;50.102;19.958;2023-06-14T08:56:38;98730.80;;;14.54
68510;BMP180;55512;50.102;19.958;2023-06-14T08:59:05;98731.00;;;14.50
68510;BMP180;55512;50.102;19.958;2023-06-14T09:01:36;98729.40;;;14.44
68510;BMP180;55512;50.102;19.958;2023-06-14T09:04:03;98731.20;;;14.40
68510;BMP180;55512;50.102;19.958;2023-06-14T09:06:31;98733.80;;;14.40
68510;BMP180;55512;50.102;19.958;2023-06-14T09:08:57;98737.00;;;14.40
68510;BMP180;55512;50.102;19.958;2023-06-14T09:11:23;98742.20;;;14.44
68510;BMP180;55512;50.102;19.958;2023-06-14T09:13:51;98745.80;;;14.50
68510;BMP180;55512;50.102;19.958;2023-06-14T09:16:16;98747.20;;;14.50
68510;BMP180;55512;50.102;19.958;2023-06-14T09:18:47;98749.60;;;14.50
68510;BMP180;55512;50.102;19.958;2023-06-14T09:21:17;98751.20;;;14.60
68510;BMP180;55512;50.102;19.958;2023-06-14T09:23:47;98749.40;;;14.60
68510;BMP180;55512;50.102;19.958;2023-06-14T09:26:19;98752.40;;;14.60
68510;BMP180;55512;50.102;19.958;2023-06-14T09:28:50;98753.20;;;14.60
68510;BMP180;55512;50.102;19.958;2023-06-14T09:31:20;98756.20;;;14.60
68510;BMP180;55512;50.102;19.958;2023-06-14T09:33:48;98759.60;;;14.70
68510;BMP180;55512;50.102;19.958;2023-06-14T09:36:21;98757.20;;;14.70
68510;BMP180;55512;50.102;19.958;2023-06-14T09:38:59;98756.00;;;14.78
68510;BMP180;55512;50.102;19.958;2023-06-14T09:41:40;98753.00;;;14.82
68510;BMP180;55512;50.102;19.958;2023-06-14T09:44:08;98758.80;;;14.90
68510;BMP180;55512;50.102;19.958;2023-06-14T09:46:35;98756.80;;;14.80
68510;BMP180;55512;50.102;19.958;2023-06-14T09:49:02;98755.20;;;14.80
68510;BMP180;55512;50.102;19.958;2023-06-14T09:51:28;98755.20;;;14.80
68510;BMP180;55512;50.102;19.958;2023-06-14T09:54:02;98755.00;;;14.80
68510;BMP180;55512;50.102;19.958;2023-06-14T09:56:37;98755.40;;;14.70
68510;BMP180;55512;50.102;19.958;2023-06-14T09:59:09;98754.80;;;14.80
68510;BMP180;55512;50.102;19.958;2023-06-14T10:01:41;98756.00;;;14.80
68510;BMP180;55512;50.102;19.958;2023-06-14T10:04:07;98756.00;;;14.72
68510;BMP180;55512;50.102;19.958;2023-06-14T10:06:38;98754.00;;;14.70
68510;BMP180;55512;50.102;19.958;2023-06-14T10:09:09;98754.80;;;14.60
68510;BMP180;55512;50.102;19.958;2023-06-14T10:11:36;98752.80;;;14.60
68510;BMP180;55512;50.102;19.958;2023-06-14T10:14:05;98749.40;;;14.50
68510;BMP180;55512;50.102;19.958;2023-06-14T10:19:24;98747.80;;;14.30
68510;BMP180;55512;50.102;19.958;2023-06-14T10:22:13;98749.60;;;14.30
68510;BMP180;55512;50.102;19.958;2023-06-14T10:24:45;98752.20;;;14.30
68510;BMP180;55512;50.102;19.958;2023-06-14T10:27:14;98750.80;;;14.40
68510;BMP180;55512;50.102;19.958;2023-06-14T10:32:22;98754.20;;;14.30
68510;BMP180;55512;50.102;19.958;2023-06-14T10:35:00;98753.00;;;14.38
68510;BMP180;55512;50.102;19.958;2023-06-14T10:37:26;98752.40;;;14.40
68510;BMP180;55512;50.102;19.958;2023-06-14T10:39:52;98754.40;;;14.50
68510;BMP180;55512;50.102;19.958;2023-06-14T10:42:21;98752.80;;;14.50
68510;BMP180;55512;50.102;19.958;2023-06-14T10:44:55;98756.00;;;14.50
68510;BMP180;55512;50.102;19.958;2023-06-14T10:47:34;98754.40;;;14.60
68510;BMP180;55512;50.102;19.958;2023-06-14T10:50:09;98756.40;;;14.60
68510;BMP180;55512;50.102;19.958;2023-06-14T10:52:41;98753.00;;;14.66
68510;BMP180;55512;50.102;19.958;2023-06-14T10:55:13;98752.40;;;14.70
68510;BMP180;55512;50.102;19.958;2023-06-14T11:00:07;98750.80;;;14.90
68510;BMP180;55512;50.102;19.958;2023-06-14T11:11:12;98741.60;;;15.20
68510;BMP180;55512;50.102;19.958;2023-06-14T11:13:45;98739.40;;;15.30
68510;BMP180;55512;50.102;19.958;2023-06-14T11:16:16;98737.20;;;15.40
68510;BMP180;55512;50.102;19.958;2023-06-14T11:18:44;98737.60;;;15.40
68510;BMP180;55512;50.102;19.958;2023-06-14T11:21:10;98735.00;;;15.50
68510;BMP180;55512;50.102;19.958;2023-06-14T11:23:36;98732.20;;;15.60
68510;BMP180;55512;50.102;19.958;2023-06-14T11:26:02;98733.80;;;15.58
68510;BMP180;55512;50.102;19.958;2023-06-14T11:28:40;98732.60;;;15.60
68510;BMP180;55512;50.102;19.958;2023-06-14T11:31:07;98732.20;;;15.70
68510;BMP180;55512;50.102;19.958;2023-06-14T11:33:33;98733.20;;;15.70
68510;BMP180;55512;50.102;19.958;2023-06-14T11:36:03;98727.40;;;15.80
68510;BMP180;55512;50.102;19.958;2023-06-14T11:38:30;98728.60;;;15.94
68510;BMP180;55512;50.102;19.958;2023-06-14T11:40:59;98726.00;;;16.00
68510;BMP180;55512;50.102;19.958;2023-06-14T11:43:25;98723.80;;;16.10
68510;BMP180;55512;50.102;19.958;2023-06-14T11:45:52;98723.00;;;16.18
68510;BMP180;55512;50.102;19.958;2023-06-14T11:48:18;98722.80;;;16.20
68510;BMP180;55512;50.102;19.958;2023-06-14T11:50:44;98720.20;;;16.20
68510;BMP180;55512;50.102;19.958;2023-06-14T11:53:10;98716.60;;;16.20
68510;BMP180;55512;50.102;19.958;2023-06-14T11:55:39;98715.60;;;16.20
68510;BMP180;55512;50.102;19.958;2023-06-14T11:58:06;98714.00;;;16.30
68510;BMP180;55512;50.102;19.958;2023-06-14T12:00:32;98711.60;;;16.40
68510;BMP180;55512;50.102;19.958;2023-06-14T12:03:01;98709.20;;;16.50
68510;BMP180;55512;50.102;19.958;2023-06-14T12:05:26;98708.60;;;16.76
68510;BMP180;55512;50.102;19.958;2023-06-14T12:08:03;98707.60;;;17.06
68510;BMP180;55512;50.102;19.958;2023-06-14T12:10:42;98709.20;;;17.32
68510;BMP180;55512;50.102;19.958;2023-06-14T12:13:11;98713.40;;;17.40
68510;BMP180;55512;50.102;19.958;2023-06-14T12:15:36;98709.20;;;17.60
68510;BMP180;55512;50.102;19.958;2023-06-14T12:18:06;98709.20;;;17.80
68510;BMP180;55512;50.102;19.958;2023-06-14T12:20:34;98713.00;;;17.90
68510;BMP180;55512;50.102;19.958;2023-06-14T12:23:03;98713.20;;;17.96
68510;BMP180;55512;50.102;19.958;2023-06-14T12:25:32;98709.40;;;17.90
68510;BMP180;55512;50.102;19.958;2023-06-14T12:28:05;98705.40;;;17.90
68510;BMP180;55512;50.102;19.958;2023-06-14T12:30:31;98706.40;;;17.92
68510;BMP180;55512;50.102;19.958;2023-06-14T12:32:57;98707.60;;;18.00
68510;BMP180;55512;50.102;19.958;2023-06-14T12:35:22;98712.20;;;18.00
68510;BMP180;55512;50.102;19.958;2023-06-14T12:37:48;98713.00;;;18.10
68510;BMP180;55512;50.102;19.958;2023-06-14T12:40:14;98708.40;;;18.10
68510;BMP180;55512;50.102;19.958;2023-06-14T12:42:41;98707.60;;;18.24
68510;BMP180;55512;50.102;19.958;2023-06-14T12:45:07;98707.60;;;18.38
68510;BMP180;55512;50.102;19.958;2023-06-14T12:47:33;98699.80;;;18.40
68510;BMP180;55512;50.102;19.958;2023-06-14T12:49:58;98703.60;;;18.50
68510;BMP180;55512;50.102;19.958;2023-06-14T12:52:24;98697.40;;;18.70
68510;BMP180;55512;50.102;19.958;2023-06-14T12:54:50;98701.80;;;18.98
68510;BMP180;55512;50.102;19.958;2023-06-14T12:57:15;98693.40;;;19.18
68510;BMP180;55512;50.102;19.958;2023-06-14T12:59:41;98695.60;;;19.20
68510;BMP180;55512;50.102;19.958;2023-06-14T13:02:15;98693.20;;;19.00
68510;BMP180;55512;50.102;19.958;2023-06-14T13:04:41;98693.20;;;19.00
68510;BMP180;55512;50.102;19.958;2023-06-14T13:07:06;98689.60;;;19.00
68510;BMP180;55512;50.102;19.958;2023-06-14T13:09:32;98685.60;;;19.00
68510;BMP180;55512;50.102;19.958;2023-06-14T13:11:58;98682.20;;;19.00
68510;BMP180;55512;50.102;19.958;2023-06-14T13:14:23;98681.40;;;19.12
68510;BMP180;55512;50.102;19.958;2023-06-14T13:16:49;98681.40;;;19.30
68510;BMP180;55512;50.102;19.958;2023-06-14T13:19:15;98686.40;;;19.40
68510;BMP180;55512;50.102;19.958;2023-06-14T13:21:41;98685.40;;;19.30
68510;BMP180;55512;50.102;19.958;2023-06-14T13:24:07;98680.80;;;19.40
68510;BMP180;55512;50.102;19.958;2023-06-14T13:26:33;98679.00;;;19.50
68510;BMP180;55512;50.102;19.958;2023-06-14T13:28:59;98683.60;;;19.60
68510;BMP180;55512;50.102;19.958;2023-06-14T13:31:25;98683.40;;;19.60
68510;BMP180;55512;50.102;19.958;2023-06-14T13:33:51;98687.80;;;19.70
68510;BMP180;55512;50.102;19.958;2023-06-14T13:36:17;98688.80;;;19.70
68510;BMP180;55512;50.102;19.958;2023-06-14T13:38:42;98678.80;;;19.88
68510;BMP180;55512;50.102;19.958;2023-06-14T13:41:08;98686.00;;;19.90
68510;BMP180;55512;50.102;19.958;2023-06-14T13:43:33;98685.40;;;20.00
68510;BMP180;55512;50.102;19.958;2023-06-14T13:45:59;98682.00;;;19.92
68510;BMP180;55512;50.102;19.958;2023-06-14T13:48:24;98686.80;;;19.90
68510;BMP180;55512;50.102;19.958;2023-06-14T13:50:50;98688.00;;;19.80
68510;BMP180;55512;50.102;19.958;2023-06-14T13:53:15;98687.60;;;19.80
68510;BMP180;55512;50.102;19.958;2023-06-14T13:55:41;98688.80;;;19.90
68510;BMP180;55512;50.102;19.958;2023-06-14T13:58:06;98693.40;;;20.10
68510;BMP180;55512;50.102;19.958;2023-06-14T14:00:32;98691.00;;;20.32
68510;BMP180;55512;50.102;19.958;2023-06-14T14:02:57;98692.80;;;20.60
68510;BMP180;55512;50.102;19.958;2023-06-14T14:05:25;98692.00;;;20.60
68510;BMP180;55512;50.102;19.958;2023-06-14T14:07:54;98689.40;;;20.50
68510;BMP180;55512;50.102;19.958;2023-06-14T14:10:20;98690.00;;;20.52
68510;BMP180;55512;50.102;19.958;2023-06-14T14:12:46;98695.40;;;20.66
68510;BMP180;55512;50.102;19.958;2023-06-14T14:15:12;98696.60;;;20.60